ADDS METAR Data INFO
IDs: Format: Raw Decoded Include TAF

Data at: 1244 UTC 19 Oct 2017

KL35 191235Z AUTO 00000KT 10SM CLR 01/M02 A3013 RMK AO2
KL35 191215Z AUTO 00000KT 10SM CLR 01/M02 A3013 RMK AO2
KL35 191155Z AUTO 00000KT 10SM CLR 02/M02 A3013 RMK AO2
KL35 191135Z AUTO 00000KT 10SM CLR 01/M01 A3013 RMK AO2
KL35 191115Z AUTO 00000KT 10SM CLR 01/M02 A3013 RMK AO2
KL35 191055Z AUTO 00000KT 10SM CLR 02/M02 A3013 RMK AO2
KL35 191035Z AUTO 00000KT 10SM CLR 02/M03 A3014 RMK AO2
KL35 191015Z AUTO 00000KT 10SM CLR 02/M02 A3014 RMK AO2
KL35 190955Z AUTO 00000KT 10SM CLR 02/M02 A3015 RMK AO2
KL35 190935Z AUTO 00000KT 10SM CLR 02/M03 A3016 RMK AO2
KL35 190915Z AUTO 00000KT 10SM CLR 02/M02 A3016 RMK AO2
KL35 190855Z AUTO 00000KT 10SM CLR 02/M02 A3017 RMK AO2
KL35 190835Z AUTO 00000KT 10SM CLR 03/M02 A3017 RMK AO2
KL35 190815Z AUTO 00000KT 10SM CLR 03/M02 A3017 RMK AO2
KL35 190755Z AUTO 00000KT 10SM CLR 03/M03 A3018 RMK AO2
KL35 190735Z AUTO 00000KT 10SM CLR 03/M03 A3018 RMK AO2
KL35 190715Z AUTO 00000KT 10SM CLR 03/M03 A3019 RMK AO2
KL35 190655Z AUTO 00000KT 10SM CLR 04/M03 A3019 RMK AO2
KL35 190635Z AUTO 00000KT 10SM CLR 04/M02 A3019 RMK AO2
KL35 190615Z AUTO 00000KT 10SM CLR 05/M02 A3020 RMK AO2
KL35 190555Z AUTO 00000KT 10SM CLR 05/M01 A3020 RMK AO2
KL35 190535Z AUTO 00000KT 10SM CLR 05/M01 A3020 RMK AO2
KL35 190515Z AUTO 00000KT 10SM CLR 06/M01 A3020 RMK AO2
KL35 190455Z AUTO 00000KT 10SM CLR 06/M01 A3020 RMK AO2
KL35 190435Z AUTO 00000KT 10SM CLR 06/M01 A3020 RMK AO2
KL35 190415Z AUTO 00000KT 10SM CLR 07/M01 A3020 RMK AO2
KL35 190355Z AUTO 00000KT 10SM CLR 07/M01 A3021 RMK AO2
KL35 190335Z AUTO 00000KT 10SM CLR 08/M01 A3021 RMK AO2
KL35 190315Z AUTO 00000KT 10SM CLR 09/M01 A3021 RMK AO2
KL35 190255Z AUTO 00000KT 10SM CLR 10/00 A3021 RMK AO2
KL35 190235Z AUTO 00000KT 10SM CLR 11/00 A3021 RMK AO2
KL35 190210Z AUTO 00000KT 10SM CLR 12/00 A3021 RMK AO2
KL35 190155Z AUTO 00000KT 10SM CLR 12/00 A3021 RMK AO2
KL35 190135Z AUTO 00000KT 10SM CLR 14/00 A3020 RMK AO2
KL35 190115Z AUTO 00000KT 10SM CLR 15/01 A3020 RMK AO2
KL35 190055Z AUTO 00000KT 10SM CLR 16/01 A3020 RMK AO2
KL35 190035Z AUTO 31003KT 10SM SCT070 17/01 A3020 RMK AO2
KL35 190015Z AUTO 05006KT 10SM SCT070 17/00 A3020 RMK AO2
KL35 182355Z AUTO 08006KT 10SM SCT070 18/00 A3020 RMK AO2
KL35 182335Z AUTO 32006KT 10SM SCT070 18/01 A3020 RMK AO2
KL35 182315Z AUTO 01006KT 10SM SCT070 18/M01 A3020 RMK AO2
KL35 182255Z AUTO 03004KT 10SM BKN070 18/M01 A3021 RMK AO2
KL35 182235Z AUTO 30007KT 10SM SCT070 18/M01 A3021 RMK AO2
KL35 182215Z AUTO 27006KT 10SM CLR 20/01 A3021 RMK AO2
KL35 182155Z AUTO 24004KT 10SM CLR 19/01 A3021 RMK AO2
KL35 182135Z AUTO 26008KT 10SM SCT075 20/01 A3021 RMK AO2
KL35 182115Z AUTO 06003KT 10SM CLR 19/M01 A3021 RMK AO2
KL35 182055Z AUTO 00000KT 10SM CLR 19/M01 A3021 RMK AO2
KL35 182035Z AUTO 07007KT 044V104 7SM CLR 19/M02 A3022 RMK AO2
KL35 182015Z AUTO 09005KT 10SM CLR 20/M02 A3023 RMK AO2
KL35 181955Z AUTO 07009KT 4SM HZ CLR 20/M02 A3023 RMK AO2
KL35 181935Z AUTO 12006KT 10SM CLR 20/M01 A3023 RMK AO2
KL35 181915Z AUTO 26009G19KT 234V314 10SM CLR 21/00 A3024 RMK AO2
KL35 181855Z AUTO 24006G14KT 10SM CLR 20/02 A3024 RMK AO2
KL35 181835Z AUTO 26013G17KT 10SM CLR 20/02 A3025 RMK AO2
KL35 181815Z AUTO 00000KT 10SM CLR 21/01 A3025 RMK AO2
KL35 181755Z AUTO 00000KT 10SM SCT065 20/02 A3025 RMK AO2
KL35 181735Z AUTO 00000KT 10SM CLR 20/02 A3026 RMK AO2
KL35 181715Z AUTO 00000KT 10SM CLR 18/02 A3026 RMK AO2
KL35 181655Z AUTO 00000KT 10SM CLR 18/02 A3027 RMK AO2
KL35 181635Z AUTO 00000KT 10SM CLR 16/03 A3028 RMK AO2
KL35 181615Z AUTO 00000KT 10SM CLR 13/03 A3028 RMK AO2
KL35 181555Z AUTO 00000KT 10SM CLR 11/02 A3028 RMK AO2
KL35 181535Z AUTO 00000KT 10SM CLR 11/01 A3028 RMK AO2
KL35 181515Z AUTO 00000KT 10SM CLR 10/00 A3027 RMK AO2
KL35 181455Z AUTO 00000KT 10SM CLR 08/00 A3027 RMK AO2
KL35 181435Z AUTO 00000KT 10SM CLR 08/00 A3026 RMK AO2
KL35 181415Z AUTO 00000KT 10SM CLR 07/00 A3026 RMK AO2
KL35 181355Z AUTO 00000KT 10SM CLR 07/M01 A3026 RMK AO2
KL35 181335Z AUTO 00000KT 10SM CLR 07/M01 A3026 RMK AO2
KL35 181315Z AUTO 00000KT 10SM BKN120 07/M01 A3026 RMK AO2
KL35 181255Z AUTO 00000KT 10SM BKN120 07/M01 A3026 RMK AO2
KL35 181235Z AUTO 00000KT 10SM CLR 07/M01 A3027 RMK AO2
KL35 181215Z AUTO 00000KT 10SM CLR 07/M01 A3026 RMK AO2
KL35 181155Z AUTO 26004KT 10SM CLR 07/M01 A3026 RMK AO2
KL35 181135Z AUTO 00000KT 10SM CLR 07/M01 A3026 RMK AO2
KL35 181115Z AUTO 00000KT 10SM CLR 07/M01 A3025 RMK AO2
KL35 181055Z AUTO 00000KT 10SM CLR 07/M01 A3026 RMK AO2
KL35 181035Z AUTO 00000KT 10SM CLR 07/00 A3026 RMK AO2
KL35 181015Z AUTO 26003KT 10SM CLR 06/M01 A3026 RMK AO2
KL35 180955Z AUTO 00000KT 10SM CLR 06/M02 A3027 RMK AO2
KL35 180935Z AUTO 00000KT 10SM CLR 05/M02 A3028 RMK AO2
KL35 180915Z AUTO 00000KT 10SM CLR 05/M02 A3028 RMK AO2
KL35 180855Z AUTO 00000KT 10SM CLR 04/M02 A3028 RMK AO2
KL35 180835Z AUTO 00000KT 10SM CLR 05/M02 A3028 RMK AO2
KL35 180815Z AUTO 00000KT 10SM CLR 05/M02 A3028 RMK AO2
KL35 180755Z AUTO 00000KT 10SM CLR 06/M02 A3028 RMK AO2
KL35 180735Z AUTO 00000KT 10SM CLR 06/M02 A3029 RMK AO2
KL35 180715Z AUTO 00000KT 10SM CLR 06/M02 A3029 RMK AO2
KL35 180655Z AUTO 00000KT 10SM CLR 06/M03 A3029 RMK AO2
KL35 180635Z AUTO 00000KT 10SM CLR 07/M03 A3029 RMK AO2
KL35 180615Z AUTO 00000KT 10SM CLR 07/M03 A3030 RMK AO2
KL35 180555Z AUTO 00000KT 10SM CLR 07/M03 A3030 RMK AO2
KL35 180535Z AUTO 00000KT 10SM CLR 07/M02 A3031 RMK AO2
KL35 180515Z AUTO 00000KT 10SM CLR 08/M03 A3031 RMK AO2
KL35 180455Z AUTO 00000KT 10SM CLR 08/M03 A3031 RMK AO2
KL35 180430Z AUTO 00000KT 10SM CLR 09/M03 A3031 RMK AO2
KL35 180415Z AUTO 00000KT 10SM CLR 10/M03 A3031 RMK AO2
KL35 180355Z AUTO 00000KT 10SM CLR 09/M04 A3031 RMK AO2
KL35 180335Z AUTO 00000KT 10SM CLR 10/M05 A3031 RMK AO2
KL35 180315Z AUTO 00000KT 10SM CLR 10/M05 A3031 RMK AO2
KL35 180255Z AUTO 00000KT 10SM CLR 11/M05 A3031 RMK AO2
KL35 180235Z AUTO 00000KT 10SM SCT120 12/M05 A3031 RMK AO2
KL35 180215Z AUTO 00000KT 10SM BKN120 13/M04 A3031 RMK AO2
KL35 180155Z AUTO 00000KT 10SM SCT120 13/M04 A3031 RMK AO2
KL35 180135Z AUTO 00000KT 10SM SCT120 15/M04 A3030 RMK AO2
KL35 180115Z AUTO 00000KT 10SM SCT120 17/M04 A3030 RMK AO2
KL35 180055Z AUTO 00000KT 10SM CLR 18/M04 A3030 RMK AO2